sensor_id;sensor_type;location;lat;lon;timestamp;P1;durP1;ratioP1;P2;durP2;ratioP2
63312;SDS011;49442;45.640;13.812;2022-08-01T00:01:24;2.05;;;1.38;;
63312;SDS011;49442;45.640;13.812;2022-08-01T00:03:50;1.88;;;1.63;;
63312;SDS011;49442;45.640;13.812;2022-08-01T00:06:15;4.97;;;1.95;;
63312;SDS011;49442;45.640;13.812;2022-08-01T00:08:41;4.25;;;2.05;;
63312;SDS011;49442;45.640;13.812;2022-08-01T00:11:07;3.35;;;1.48;;
63312;SDS011;49442;45.640;13.812;2022-08-01T00:13:34;2.42;;;1.40;;
63312;SDS011;49442;45.640;13.812;2022-08-01T00:16:00;2.13;;;1.60;;
63312;SDS011;49442;45.640;13.812;2022-08-01T00:18:26;5.07;;;1.70;;
63312;SDS011;49442;45.640;13.812;2022-08-01T00:20:51;2.40;;;1.60;;
63312;SDS011;49442;45.640;13.812;2022-08-01T00:23:17;2.10;;;1.48;;
63312;SDS011;49442;45.640;13.812;2022-08-01T00:25:43;4.53;;;1.58;;
63312;SDS011;49442;45.640;13.812;2022-08-01T00:28:09;5.95;;;2.05;;
63312;SDS011;49442;45.640;13.812;2022-08-01T00:30:35;3.03;;;1.65;;
63312;SDS011;49442;45.640;13.812;2022-08-01T00:33:01;4.53;;;1.67;;
63312;SDS011;49442;45.640;13.812;2022-08-01T00:35:27;6.03;;;1.65;;
63312;SDS011;49442;45.640;13.812;2022-08-01T00:37:53;4.93;;;1.70;;
63312;SDS011;49442;45.640;13.812;2022-08-01T00:40:19;1.90;;;1.30;;
63312;SDS011;49442;45.640;13.812;2022-08-01T00:42:44;3.58;;;1.52;;
63312;SDS011;49442;45.640;13.812;2022-08-01T00:45:10;2.05;;;1.58;;
63312;SDS011;49442;45.640;13.812;2022-08-01T00:47:37;7.68;;;1.75;;
63312;SDS011;49442;45.640;13.812;2022-08-01T00:50:06;3.00;;;1.83;;
63312;SDS011;49442;45.640;13.812;2022-08-01T00:52:32;2.67;;;1.73;;
63312;SDS011;49442;45.640;13.812;2022-08-01T00:54:59;3.03;;;1.83;;
63312;SDS011;49442;45.640;13.812;2022-08-01T00:57:25;2.13;;;1.70;;
63312;SDS011;49442;45.640;13.812;2022-08-01T00:59:52;2.63;;;1.50;;
63312;SDS011;49442;45.640;13.812;2022-08-01T01:02:17;4.45;;;1.65;;
63312;SDS011;49442;45.640;13.812;2022-08-01T01:04:43;3.80;;;1.90;;
63312;SDS011;49442;45.640;13.812;2022-08-01T01:07:12;2.50;;;2.05;;
63312;SDS011;49442;45.640;13.812;2022-08-01T01:12:28;2.80;;;1.67;;
63312;SDS011;49442;45.640;13.812;2022-08-01T01:15:02;2.15;;;1.65;;
63312;SDS011;49442;45.640;13.812;2022-08-01T01:17:40;1.30;;;1.20;;
63312;SDS011;49442;45.640;13.812;2022-08-01T01:20:07;3.17;;;1.58;;
63312;SDS011;49442;45.640;13.812;2022-08-01T01:25:21;5.93;;;1.60;;
63312;SDS011;49442;45.640;13.812;2022-08-01T01:30:31;3.05;;;1.52;;
63312;SDS011;49442;45.640;13.812;2022-08-01T01:32:59;4.07;;;1.60;;
63312;SDS011;49442;45.640;13.812;2022-08-01T01:35:29;2.22;;;1.70;;
63312;SDS011;49442;45.640;13.812;2022-08-01T01:38:04;2.38;;;1.60;;
63312;SDS011;49442;45.640;13.812;2022-08-01T01:40:33;3.60;;;1.50;;
63312;SDS011;49442;45.640;13.812;2022-08-01T01:43:00;3.55;;;1.92;;
63312;SDS011;49442;45.640;13.812;2022-08-01T01:45:26;3.03;;;1.48;;
63312;SDS011;49442;45.640;13.812;2022-08-01T01:47:53;7.00;;;1.55;;
63312;SDS011;49442;45.640;13.812;2022-08-01T01:50:21;1.73;;;1.50;;
63312;SDS011;49442;45.640;13.812;2022-08-01T01:52:48;2.05;;;1.58;;
63312;SDS011;49442;45.640;13.812;2022-08-01T01:55:16;2.42;;;1.52;;
63312;SDS011;49442;45.640;13.812;2022-08-01T01:57:44;9.32;;;1.73;;
63312;SDS011;49442;45.640;13.812;2022-08-01T02:00:11;4.00;;;1.60;;
63312;SDS011;49442;45.640;13.812;2022-08-01T02:02:38;2.38;;;1.70;;
63312;SDS011;49442;45.640;13.812;2022-08-01T02:05:05;4.18;;;1.73;;
63312;SDS011;49442;45.640;13.812;2022-08-01T02:07:33;3.38;;;1.70;;
63312;SDS011;49442;45.640;13.812;2022-08-01T02:10:00;2.92;;;1.60;;
63312;SDS011;49442;45.640;13.812;2022-08-01T02:12:28;4.25;;;1.63;;
63312;SDS011;49442;45.640;13.812;2022-08-01T02:14:57;3.67;;;1.77;;
63312;SDS011;49442;45.640;13.812;2022-08-01T02:17:25;2.15;;;1.58;;
63312;SDS011;49442;45.640;13.812;2022-08-01T02:19:53;1.90;;;1.30;;
63312;SDS011;49442;45.640;13.812;2022-08-01T02:22:21;6.30;;;1.60;;
63312;SDS011;49442;45.640;13.812;2022-08-01T02:30:21;3.17;;;1.60;;
63312;SDS011;49442;45.640;13.812;2022-08-01T02:32:51;3.35;;;1.58;;
63312;SDS011;49442;45.640;13.812;2022-08-01T02:35:29;2.55;;;1.73;;
63312;SDS011;49442;45.640;13.812;2022-08-01T02:38:00;5.93;;;1.70;;
63312;SDS011;49442;45.640;13.812;2022-08-01T02:40:31;3.88;;;1.98;;
63312;SDS011;49442;45.640;13.812;2022-08-01T02:42:59;3.15;;;1.73;;
63312;SDS011;49442;45.640;13.812;2022-08-01T02:45:27;5.13;;;2.47;;
63312;SDS011;49442;45.640;13.812;2022-08-01T02:47:54;4.03;;;1.60;;
63312;SDS011;49442;45.640;13.812;2022-08-01T02:50:24;2.17;;;1.20;;
63312;SDS011;49442;45.640;13.812;2022-08-01T02:52:51;1.92;;;1.42;;
63312;SDS011;49442;45.640;13.812;2022-08-01T02:55:19;4.40;;;1.58;;
63312;SDS011;49442;45.640;13.812;2022-08-01T02:57:45;3.80;;;1.60;;
63312;SDS011;49442;45.640;13.812;2022-08-01T03:00:13;1.90;;;1.58;;
63312;SDS011;49442;45.640;13.812;2022-08-01T03:02:40;3.55;;;1.50;;
63312;SDS011;49442;45.640;13.812;2022-08-01T03:05:07;3.08;;;1.70;;
63312;SDS011;49442;45.640;13.812;2022-08-01T03:07:35;2.85;;;1.60;;
63312;SDS011;49442;45.640;13.812;2022-08-01T03:10:01;3.58;;;1.52;;
63312;SDS011;49442;45.640;13.812;2022-08-01T03:12:29;3.63;;;1.73;;
63312;SDS011;49442;45.640;13.812;2022-08-01T03:14:59;4.03;;;1.33;;
63312;SDS011;49442;45.640;13.812;2022-08-01T03:17:27;5.18;;;1.65;;
63312;SDS011;49442;45.640;13.812;2022-08-01T03:19:54;2.63;;;1.50;;
63312;SDS011;49442;45.640;13.812;2022-08-01T03:22:23;5.50;;;1.60;;
63312;SDS011;49442;45.640;13.812;2022-08-01T03:24:51;3.10;;;1.30;;
63312;SDS011;49442;45.640;13.812;2022-08-01T03:27:22;5.97;;;1.65;;
63312;SDS011;49442;45.640;13.812;2022-08-01T03:29:49;2.85;;;1.50;;
63312;SDS011;49442;45.640;13.812;2022-08-01T03:32:17;5.38;;;1.30;;
63312;SDS011;49442;45.640;13.812;2022-08-01T03:34:44;2.30;;;1.58;;
63312;SDS011;49442;45.640;13.812;2022-08-01T03:37:12;5.45;;;1.63;;
63312;SDS011;49442;45.640;13.812;2022-08-01T03:39:50;3.58;;;1.73;;
63312;SDS011;49442;45.640;13.812;2022-08-01T03:42:22;2.47;;;1.48;;
63312;SDS011;49442;45.640;13.812;2022-08-01T03:44:54;3.63;;;1.55;;
63312;SDS011;49442;45.640;13.812;2022-08-01T03:47:24;3.85;;;1.50;;
63312;SDS011;49442;45.640;13.812;2022-08-01T03:49:56;2.85;;;1.75;;
63312;SDS011;49442;45.640;13.812;2022-08-01T03:52:23;7.82;;;1.73;;
63312;SDS011;49442;45.640;13.812;2022-08-01T03:54:52;3.13;;;2.20;;
63312;SDS011;49442;45.640;13.812;2022-08-01T03:57:20;3.17;;;1.50;;
63312;SDS011;49442;45.640;13.812;2022-08-01T03:59:47;10.60;;;1.98;;
63312;SDS011;49442;45.640;13.812;2022-08-01T04:02:14;2.22;;;1.52;;
63312;SDS011;49442;45.640;13.812;2022-08-01T04:04:40;2.85;;;1.60;;
63312;SDS011;49442;45.640;13.812;2022-08-01T04:07:20;2.05;;;1.85;;
63312;SDS011;49442;45.640;13.812;2022-08-01T04:09:47;3.42;;;1.80;;
63312;SDS011;49442;45.640;13.812;2022-08-01T04:12:16;3.90;;;1.80;;
63312;SDS011;49442;45.640;13.812;2022-08-01T04:14:41;1.98;;;1.58;;
63312;SDS011;49442;45.640;13.812;2022-08-01T04:17:08;5.38;;;1.60;;
63312;SDS011;49442;45.640;13.812;2022-08-01T04:19:34;2.58;;;1.63;;
63312;SDS011;49442;45.640;13.812;2022-08-01T04:22:00;3.38;;;1.75;;
63312;SDS011;49442;45.640;13.812;2022-08-01T04:24:27;2.50;;;1.50;;
63312;SDS011;49442;45.640;13.812;2022-08-01T04:26:55;2.55;;;1.55;;
63312;SDS011;49442;45.640;13.812;2022-08-01T04:29:24;1.70;;;1.35;;
63312;SDS011;49442;45.640;13.812;2022-08-01T04:31:52;5.53;;;1.88;;
63312;SDS011;49442;45.640;13.812;2022-08-01T04:34:21;4.15;;;1.70;;
63312;SDS011;49442;45.640;13.812;2022-08-01T04:36:52;3.00;;;1.50;;
63312;SDS011;49442;45.640;13.812;2022-08-01T04:39:20;4.32;;;1.88;;
63312;SDS011;49442;45.640;13.812;2022-08-01T04:41:52;5.03;;;1.50;;
63312;SDS011;49442;45.640;13.812;2022-08-01T04:44:21;6.28;;;1.92;;
63312;SDS011;49442;45.640;13.812;2022-08-01T04:46:48;3.45;;;1.50;;
63312;SDS011;49442;45.640;13.812;2022-08-01T04:49:18;2.75;;;1.77;;
63312;SDS011;49442;45.640;13.812;2022-08-01T04:51:53;3.35;;;2.00;;
63312;SDS011;49442;45.640;13.812;2022-08-01T04:54:25;2.78;;;1.75;;
63312;SDS011;49442;45.640;13.812;2022-08-01T04:56:58;2.70;;;1.73;;
63312;SDS011;49442;45.640;13.812;2022-08-01T04:59:25;2.20;;;1.50;;
63312;SDS011;49442;45.640;13.812;2022-08-01T05:02:04;1.42;;;1.33;;
63312;SDS011;49442;45.640;13.812;2022-08-01T05:04:34;4.57;;;1.50;;
63312;SDS011;49442;45.640;13.812;2022-08-01T05:07:00;9.82;;;1.80;;
63312;SDS011;49442;45.640;13.812;2022-08-01T05:09:26;9.75;;;1.85;;
63312;SDS011;49442;45.640;13.812;2022-08-01T05:11:52;6.50;;;1.90;;
63312;SDS011;49442;45.640;13.812;2022-08-01T05:14:18;8.32;;;2.17;;
63312;SDS011;49442;45.640;13.812;2022-08-01T05:16:44;4.20;;;1.80;;
63312;SDS011;49442;45.640;13.812;2022-08-01T05:19:10;3.35;;;1.50;;
63312;SDS011;49442;45.640;13.812;2022-08-01T05:21:36;2.15;;;1.55;;
63312;SDS011;49442;45.640;13.812;2022-08-01T05:24:02;5.57;;;1.77;;
63312;SDS011;49442;45.640;13.812;2022-08-01T05:26:31;1.83;;;1.73;;
63312;SDS011;49442;45.640;13.812;2022-08-01T05:28:58;3.03;;;1.83;;
63312;SDS011;49442;45.640;13.812;2022-08-01T05:31:24;4.95;;;2.13;;
63312;SDS011;49442;45.640;13.812;2022-08-01T05:33:49;9.07;;;2.00;;
63312;SDS011;49442;45.640;13.812;2022-08-01T05:36:15;9.40;;;2.17;;
63312;SDS011;49442;45.640;13.812;2022-08-01T05:38:41;5.22;;;2.10;;
63312;SDS011;49442;45.640;13.812;2022-08-01T05:41:06;4.80;;;1.90;;
63312;SDS011;49442;45.640;13.812;2022-08-01T05:43:32;3.45;;;1.70;;
63312;SDS011;49442;45.640;13.812;2022-08-01T05:45:58;2.78;;;1.98;;
63312;SDS011;49442;45.640;13.812;2022-08-01T05:48:24;4.22;;;1.67;;
63312;SDS011;49442;45.640;13.812;2022-08-01T05:50:50;4.95;;;1.80;;
63312;SDS011;49442;45.640;13.812;2022-08-01T05:53:16;7.63;;;2.10;;
63312;SDS011;49442;45.640;13.812;2022-08-01T05:55:41;5.32;;;2.15;;
63312;SDS011;49442;45.640;13.812;2022-08-01T05:58:07;6.68;;;1.90;;
63312;SDS011;49442;45.640;13.812;2022-08-01T06:00:33;1.70;;;1.60;;
63312;SDS011;49442;45.640;13.812;2022-08-01T06:02:58;2.10;;;1.60;;
63312;SDS011;49442;45.640;13.812;2022-08-01T06:05:24;3.88;;;1.67;;
63312;SDS011;49442;45.640;13.812;2022-08-01T06:07:50;1.65;;;1.55;;
63312;SDS011;49442;45.640;13.812;2022-08-01T06:10:15;2.05;;;1.30;;
63312;SDS011;49442;45.640;13.812;2022-08-01T06:12:41;2.97;;;1.40;;
63312;SDS011;49442;45.640;13.812;2022-08-01T06:15:07;4.50;;;1.58;;
63312;SDS011;49442;45.640;13.812;2022-08-01T06:17:33;2.50;;;1.85;;
63312;SDS011;49442;45.640;13.812;2022-08-01T06:19:59;2.13;;;1.60;;
63312;SDS011;49442;45.640;13.812;2022-08-01T06:22:25;3.50;;;2.00;;
63312;SDS011;49442;45.640;13.812;2022-08-01T06:24:51;3.05;;;1.63;;
63312;SDS011;49442;45.640;13.812;2022-08-01T06:27:17;3.13;;;1.60;;
63312;SDS011;49442;45.640;13.812;2022-08-01T06:29:43;4.75;;;1.70;;
63312;SDS011;49442;45.640;13.812;2022-08-01T06:32:09;1.67;;;1.27;;
63312;SDS011;49442;45.640;13.812;2022-08-01T06:34:35;6.28;;;1.30;;
63312;SDS011;49442;45.640;13.812;2022-08-01T06:37:01;5.53;;;1.60;;
63312;SDS011;49442;45.640;13.812;2022-08-01T06:39:26;7.13;;;1.45;;
63312;SDS011;49442;45.640;13.812;2022-08-01T06:41:52;1.33;;;1.10;;
63312;SDS011;49442;45.640;13.812;2022-08-01T06:44:18;3.90;;;1.08;;
63312;SDS011;49442;45.640;13.812;2022-08-01T06:46:43;3.15;;;1.55;;
63312;SDS011;49442;45.640;13.812;2022-08-01T06:49:09;2.72;;;1.20;;
63312;SDS011;49442;45.640;13.812;2022-08-01T06:51:35;2.35;;;1.10;;
63312;SDS011;49442;45.640;13.812;2022-08-01T06:54:01;1.85;;;1.30;;
63312;SDS011;49442;45.640;13.812;2022-08-01T06:56:26;2.80;;;1.38;;
63312;SDS011;49442;45.640;13.812;2022-08-01T06:58:52;2.35;;;1.30;;
63312;SDS011;49442;45.640;13.812;2022-08-01T07:01:21;2.15;;;1.17;;
63312;SDS011;49442;45.640;13.812;2022-08-01T07:03:46;1.92;;;1.20;;
63312;SDS011;49442;45.640;13.812;2022-08-01T07:06:12;1.90;;;1.33;;
63312;SDS011;49442;45.640;13.812;2022-08-01T07:08:39;2.08;;;1.40;;
63312;SDS011;49442;45.640;13.812;2022-08-01T07:11:05;1.85;;;1.33;;
63312;SDS011;49442;45.640;13.812;2022-08-01T07:13:31;7.72;;;1.58;;
63312;SDS011;49442;45.640;13.812;2022-08-01T07:15:57;1.20;;;1.10;;
63312;SDS011;49442;45.640;13.812;2022-08-01T07:18:23;3.80;;;1.55;;
63312;SDS011;49442;45.640;13.812;2022-08-01T07:20:49;2.63;;;1.40;;
63312;SDS011;49442;45.640;13.812;2022-08-01T07:23:18;2.90;;;1.27;;
63312;SDS011;49442;45.640;13.812;2022-08-01T07:25:45;2.42;;;1.20;;
63312;SDS011;49442;45.640;13.812;2022-08-01T07:28:16;6.03;;;1.20;;
63312;SDS011;49442;45.640;13.812;2022-08-01T07:30:42;3.25;;;1.40;;
63312;SDS011;49442;45.640;13.812;2022-08-01T07:33:09;2.22;;;1.40;;
63312;SDS011;49442;45.640;13.812;2022-08-01T07:35:35;3.22;;;1.60;;
63312;SDS011;49442;45.640;13.812;2022-08-01T07:38:03;4.55;;;1.50;;
63312;SDS011;49442;45.640;13.812;2022-08-01T07:40:29;3.28;;;1.40;;
63312;SDS011;49442;45.640;13.812;2022-08-01T07:42:55;3.42;;;1.80;;
63312;SDS011;49442;45.640;13.812;2022-08-01T07:45:21;2.15;;;1.50;;
63312;SDS011;49442;45.640;13.812;2022-08-01T07:47:46;2.53;;;1.30;;
63312;SDS011;49442;45.640;13.812;2022-08-01T07:50:14;3.60;;;1.38;;
63312;SDS011;49442;45.640;13.812;2022-08-01T07:52:41;5.35;;;1.33;;
63312;SDS011;49442;45.640;13.812;2022-08-01T07:55:09;2.33;;;1.30;;
63312;SDS011;49442;45.640;13.812;2022-08-01T07:57:35;3.25;;;1.30;;
63312;SDS011;49442;45.640;13.812;2022-08-01T08:00:02;1.30;;;1.20;;
63312;SDS011;49442;45.640;13.812;2022-08-01T08:02:29;2.45;;;1.50;;
63312;SDS011;49442;45.640;13.812;2022-08-01T08:04:55;4.53;;;1.70;;
63312;SDS011;49442;45.640;13.812;2022-08-01T08:07:20;4.32;;;1.80;;
63312;SDS011;49442;45.640;13.812;2022-08-01T08:09:46;2.90;;;1.83;;
63312;SDS011;49442;45.640;13.812;2022-08-01T08:12:12;2.13;;;1.58;;
63312;SDS011;49442;45.640;13.812;2022-08-01T08:14:37;10.40;;;1.70;;
63312;SDS011;49442;45.640;13.812;2022-08-01T08:17:04;6.20;;;1.70;;
63312;SDS011;49442;45.640;13.812;2022-08-01T08:19:30;7.13;;;1.52;;
63312;SDS011;49442;45.640;13.812;2022-08-01T08:21:58;4.20;;;1.45;;
63312;SDS011;49442;45.640;13.812;2022-08-01T08:24:24;2.13;;;1.52;;
63312;SDS011;49442;45.640;13.812;2022-08-01T08:26:52;1.30;;;1.17;;
63312;SDS011;49442;45.640;13.812;2022-08-01T08:29:19;1.90;;;1.70;;
63312;SDS011;49442;45.640;13.812;2022-08-01T08:31:46;5.00;;;1.95;;
63312;SDS011;49442;45.640;13.812;2022-08-01T08:34:12;2.22;;;1.58;;
63312;SDS011;49442;45.640;13.812;2022-08-01T08:36:38;4.68;;;2.30;;
63312;SDS011;49442;45.640;13.812;2022-08-01T08:39:03;8.55;;;1.55;;
63312;SDS011;49442;45.640;13.812;2022-08-01T08:41:30;6.30;;;1.80;;
63312;SDS011;49442;45.640;13.812;2022-08-01T08:43:57;4.65;;;2.17;;
63312;SDS011;49442;45.640;13.812;2022-08-01T08:46:25;3.08;;;2.25;;
63312;SDS011;49442;45.640;13.812;2022-08-01T08:48:52;4.93;;;2.25;;
63312;SDS011;49442;45.640;13.812;2022-08-01T08:51:21;5.57;;;2.33;;
63312;SDS011;49442;45.640;13.812;2022-08-01T08:53:51;6.68;;;2.20;;
63312;SDS011;49442;45.640;13.812;2022-08-01T08:56:19;4.18;;;2.15;;
63312;SDS011;49442;45.640;13.812;2022-08-01T08:58:46;2.95;;;2.20;;
63312;SDS011;49442;45.640;13.812;2022-08-01T09:01:12;8.27;;;2.30;;
63312;SDS011;49442;45.640;13.812;2022-08-01T09:03:39;3.42;;;1.88;;
63312;SDS011;49442;45.640;13.812;2022-08-01T09:06:06;6.47;;;2.03;;
63312;SDS011;49442;45.640;13.812;2022-08-01T09:08:32;7.18;;;2.13;;
63312;SDS011;49442;45.640;13.812;2022-08-01T09:10:58;4.00;;;2.10;;
63312;SDS011;49442;45.640;13.812;2022-08-01T09:13:24;3.75;;;1.95;;
63312;SDS011;49442;45.640;13.812;2022-08-01T09:15:51;3.95;;;1.75;;
63312;SDS011;49442;45.640;13.812;2022-08-01T09:26:10;2.63;;;1.80;;
63312;SDS011;49442;45.640;13.812;2022-08-01T09:28:37;2.97;;;1.63;;
63312;SDS011;49442;45.640;13.812;2022-08-01T09:31:11;3.72;;;1.90;;
63312;SDS011;49442;45.640;13.812;2022-08-01T09:36:20;1.60;;;1.50;;
63312;SDS011;49442;45.640;13.812;2022-08-01T09:38:47;3.20;;;1.77;;
63312;SDS011;49442;45.640;13.812;2022-08-01T09:41:13;3.15;;;1.70;;
63312;SDS011;49442;45.640;13.812;2022-08-01T09:43:39;3.80;;;1.80;;
63312;SDS011;49442;45.640;13.812;2022-08-01T09:46:09;1.83;;;1.42;;
63312;SDS011;49442;45.640;13.812;2022-08-01T09:48:39;1.75;;;1.52;;
63312;SDS011;49442;45.640;13.812;2022-08-01T09:51:33;7.22;;;1.75;;
63312;SDS011;49442;45.640;13.812;2022-08-01T09:54:01;5.90;;;1.80;;
63312;SDS011;49442;45.640;13.812;2022-08-01T09:56:38;2.55;;;1.77;;
63312;SDS011;49442;45.640;13.812;2022-08-01T09:59:06;3.80;;;1.80;;
63312;SDS011;49442;45.640;13.812;2022-08-01T10:01:43;3.70;;;1.80;;
63312;SDS011;49442;45.640;13.812;2022-08-01T10:04:19;6.53;;;1.98;;
63312;SDS011;49442;45.640;13.812;2022-08-01T10:06:47;2.67;;;1.55;;
63312;SDS011;49442;45.640;13.812;2022-08-01T10:09:26;3.40;;;1.65;;
63312;SDS011;49442;45.640;13.812;2022-08-01T10:11:53;2.92;;;1.88;;
63312;SDS011;49442;45.640;13.812;2022-08-01T10:14:21;3.10;;;1.80;;
63312;SDS011;49442;45.640;13.812;2022-08-01T10:16:49;1.90;;;1.52;;
63312;SDS011;49442;45.640;13.812;2022-08-01T10:19:17;3.38;;;1.70;;
63312;SDS011;49442;45.640;13.812;2022-08-01T10:21:45;4.97;;;2.05;;
63312;SDS011;49442;45.640;13.812;2022-08-01T10:24:14;4.55;;;1.75;;
63312;SDS011;49442;45.640;13.812;2022-08-01T10:26:41;5.35;;;1.95;;
63312;SDS011;49442;45.640;13.812;2022-08-01T10:29:09;3.95;;;2.10;;
63312;SDS011;49442;45.640;13.812;2022-08-01T10:31:36;3.70;;;1.73;;
63312;SDS011;49442;45.640;13.812;2022-08-01T10:34:05;3.30;;;2.10;;
63312;SDS011;49442;45.640;13.812;2022-08-01T10:36:30;5.82;;;1.90;;
63312;SDS011;49442;45.640;13.812;2022-08-01T10:38:58;2.40;;;2.10;;
63312;SDS011;49442;45.640;13.812;2022-08-01T10:41:25;2.90;;;1.92;;
63312;SDS011;49442;45.640;13.812;2022-08-01T10:43:52;5.13;;;1.83;;
63312;SDS011;49442;45.640;13.812;2022-08-01T10:46:19;4.32;;;1.60;;
63312;SDS011;49442;45.640;13.812;2022-08-01T10:49:30;9.05;;;2.00;;
63312;SDS011;49442;45.640;13.812;2022-08-01T10:51:38;2.17;;;1.60;;
63312;SDS011;49442;45.640;13.812;2022-08-01T10:54:06;3.63;;;1.60;;
63312;SDS011;49442;45.640;13.812;2022-08-01T10:56:42;1.50;;;1.40;;
63312;SDS011;49442;45.640;13.812;2022-08-01T10:59:10;2.30;;;1.85;;
63312;SDS011;49442;45.640;13.812;2022-08-01T11:01:44;4.40;;;2.03;;
63312;SDS011;49442;45.640;13.812;2022-08-01T11:04:22;5.38;;;2.53;;
63312;SDS011;49442;45.640;13.812;2022-08-01T11:07:07;4.32;;;2.13;;
63312;SDS011;49442;45.640;13.812;2022-08-01T11:09:39;3.90;;;2.00;;
63312;SDS011;49442;45.640;13.812;2022-08-01T11:12:10;6.97;;;2.30;;
63312;SDS011;49442;45.640;13.812;2022-08-01T11:17:30;3.85;;;2.58;;
63312;SDS011;49442;45.640;13.812;2022-08-01T11:20:12;2.78;;;2.35;;
63312;SDS011;49442;45.640;13.812;2022-08-01T11:30:52;5.55;;;2.30;;
63312;SDS011;49442;45.640;13.812;2022-08-01T11:38:36;4.43;;;1.65;;
63312;SDS011;49442;45.640;13.812;2022-08-01T11:41:13;3.38;;;2.25;;
63312;SDS011;49442;45.640;13.812;2022-08-01T11:43:58;3.17;;;2.40;;
63312;SDS011;49442;45.640;13.812;2022-08-01T11:46:47;4.18;;;2.08;;
63312;SDS011;49442;45.640;13.812;2022-08-01T11:49:23;2.63;;;2.22;;
63312;SDS011;49442;45.640;13.812;2022-08-01T11:52:05;3.20;;;2.90;;
63312;SDS011;49442;45.640;13.812;2022-08-01T11:54:42;4.82;;;2.65;;
63312;SDS011;49442;45.640;13.812;2022-08-01T11:57:11;3.55;;;2.20;;
63312;SDS011;49442;45.640;13.812;2022-08-01T11:59:44;4.07;;;2.03;;
63312;SDS011;49442;45.640;13.812;2022-08-01T12:04:50;3.13;;;2.20;;
63312;SDS011;49442;45.640;13.812;2022-08-01T12:07:39;3.65;;;3.10;;
63312;SDS011;49442;45.640;13.812;2022-08-01T12:10:07;8.25;;;2.42;;
63312;SDS011;49442;45.640;13.812;2022-08-01T12:12:35;3.70;;;2.05;;
63312;SDS011;49442;45.640;13.812;2022-08-01T12:15:05;5.90;;;2.25;;
63312;SDS011;49442;45.640;13.812;2022-08-01T12:17:46;2.75;;;2.10;;
63312;SDS011;49442;45.640;13.812;2022-08-01T12:20:14;3.25;;;1.80;;
63312;SDS011;49442;45.640;13.812;2022-08-01T12:22:41;2.20;;;1.60;;
63312;SDS011;49442;45.640;13.812;2022-08-01T12:25:09;2.88;;;1.83;;
63312;SDS011;49442;45.640;13.812;2022-08-01T12:27:36;5.93;;;1.73;;
63312;SDS011;49442;45.640;13.812;2022-08-01T12:30:06;5.30;;;1.90;;
63312;SDS011;49442;45.640;13.812;2022-08-01T12:32:34;7.13;;;1.50;;
63312;SDS011;49442;45.640;13.812;2022-08-01T12:35:04;3.45;;;1.60;;
63312;SDS011;49442;45.640;13.812;2022-08-01T12:42:50;1.73;;;1.25;;
63312;SDS011;49442;45.640;13.812;2022-08-01T12:45:25;2.28;;;1.50;;
63312;SDS011;49442;45.640;13.812;2022-08-01T12:47:57;3.83;;;1.50;;
63312;SDS011;49442;45.640;13.812;2022-08-01T12:50:25;4.13;;;1.65;;
63312;SDS011;49442;45.640;13.812;2022-08-01T12:52:54;6.20;;;2.03;;
63312;SDS011;49442;45.640;13.812;2022-08-01T12:55:21;4.30;;;1.40;;
63312;SDS011;49442;45.640;13.812;2022-08-01T12:57:50;2.10;;;1.40;;
63312;SDS011;49442;45.640;13.812;2022-08-01T13:00:28;3.05;;;1.45;;
63312;SDS011;49442;45.640;13.812;2022-08-01T13:03:04;3.25;;;1.50;;
63312;SDS011;49442;45.640;13.812;2022-08-01T13:05:44;2.03;;;1.63;;
63312;SDS011;49442;45.640;13.812;2022-08-01T13:10:39;3.00;;;1.50;;
63312;SDS011;49442;45.640;13.812;2022-08-01T13:13:06;1.73;;;1.42;;
63312;SDS011;49442;45.640;13.812;2022-08-01T13:15:33;1.73;;;1.50;;
63312;SDS011;49442;45.640;13.812;2022-08-01T13:18:09;6.60;;;1.92;;
63312;SDS011;49442;45.640;13.812;2022-08-01T13:20:47;1.85;;;1.38;;
63312;SDS011;49442;45.640;13.812;2022-08-01T13:23:14;2.72;;;1.70;;
63312;SDS011;49442;45.640;13.812;2022-08-01T13:25:47;2.38;;;1.58;;
63312;SDS011;49442;45.640;13.812;2022-08-01T13:30:50;2.60;;;1.70;;
63312;SDS011;49442;45.640;13.812;2022-08-01T13:33:28;4.28;;;1.50;;
63312;SDS011;49442;45.640;13.812;2022-08-01T13:36:08;2.08;;;0.98;;
63312;SDS011;49442;45.640;13.812;2022-08-01T13:38:34;2.42;;;1.30;;
63312;SDS011;49442;45.640;13.812;2022-08-01T13:41:19;1.42;;;1.13;;
63312;SDS011;49442;45.640;13.812;2022-08-01T13:43:44;2.35;;;1.30;;
63312;SDS011;49442;45.640;13.812;2022-08-01T13:46:10;2.15;;;1.60;;
63312;SDS011;49442;45.640;13.812;2022-08-01T13:48:36;2.53;;;1.27;;
63312;SDS011;49442;45.640;13.812;2022-08-01T13:51:02;1.83;;;1.10;;
63312;SDS011;49442;45.640;13.812;2022-08-01T13:53:27;2.00;;;1.20;;
63312;SDS011;49442;45.640;13.812;2022-08-01T13:55:53;4.18;;;1.38;;
63312;SDS011;49442;45.640;13.812;2022-08-01T13:58:19;3.00;;;1.30;;
63312;SDS011;49442;45.640;13.812;2022-08-01T14:00:45;4.80;;;1.38;;
63312;SDS011;49442;45.640;13.812;2022-08-01T14:03:11;2.03;;;1.30;;
63312;SDS011;49442;45.640;13.812;2022-08-01T14:05:37;7.38;;;1.80;;
63312;SDS011;49442;45.640;13.812;2022-08-01T14:08:07;2.13;;;1.35;;
63312;SDS011;49442;45.640;13.812;2022-08-01T14:10:34;3.83;;;1.02;;
63312;SDS011;49442;45.640;13.812;2022-08-01T14:12:59;4.07;;;1.20;;
63312;SDS011;49442;45.640;13.812;2022-08-01T14:15:25;2.17;;;1.20;;
63312;SDS011;49442;45.640;13.812;2022-08-01T14:17:54;1.40;;;1.10;;
63312;SDS011;49442;45.640;13.812;2022-08-01T14:20:20;1.75;;;1.10;;
63312;SDS011;49442;45.640;13.812;2022-08-01T14:22:46;1.58;;;0.90;;
63312;SDS011;49442;45.640;13.812;2022-08-01T14:25:12;3.22;;;0.90;;
63312;SDS011;49442;45.640;13.812;2022-08-01T14:27:38;1.85;;;1.10;;
63312;SDS011;49442;45.640;13.812;2022-08-01T14:30:06;4.88;;;1.25;;
63312;SDS011;49442;45.640;13.812;2022-08-01T14:32:32;2.55;;;1.15;;
63312;SDS011;49442;45.640;13.812;2022-08-01T14:34:59;4.30;;;1.08;;
63312;SDS011;49442;45.640;13.812;2022-08-01T14:37:25;1.13;;;0.88;;
63312;SDS011;49442;45.640;13.812;2022-08-01T14:39:51;1.23;;;1.10;;
63312;SDS011;49442;45.640;13.812;2022-08-01T14:42:17;1.77;;;0.90;;
63312;SDS011;49442;45.640;13.812;2022-08-01T14:44:43;3.63;;;0.90;;
63312;SDS011;49442;45.640;13.812;2022-08-01T14:47:08;3.55;;;0.90;;
63312;SDS011;49442;45.640;13.812;2022-08-01T14:49:34;3.60;;;1.27;;
63312;SDS011;49442;45.640;13.812;2022-08-01T14:52:00;3.03;;;0.90;;
63312;SDS011;49442;45.640;13.812;2022-08-01T14:54:26;2.03;;;0.98;;
63312;SDS011;49442;45.640;13.812;2022-08-01T14:56:51;4.97;;;1.10;;
63312;SDS011;49442;45.640;13.812;2022-08-01T14:59:18;1.85;;;1.05;;
63312;SDS011;49442;45.640;13.812;2022-08-01T15:01:44;3.90;;;1.20;;
63312;SDS011;49442;45.640;13.812;2022-08-01T15:04:10;1.10;;;1.00;;
63312;SDS011;49442;45.640;13.812;2022-08-01T15:06:36;2.88;;;0.90;;
63312;SDS011;49442;45.640;13.812;2022-08-01T15:09:02;3.10;;;1.27;;
63312;SDS011;49442;45.640;13.812;2022-08-01T15:11:28;1.08;;;0.93;;
63312;SDS011;49442;45.640;13.812;2022-08-01T15:13:53;1.92;;;1.10;;
63312;SDS011;49442;45.640;13.812;2022-08-01T15:16:38;2.13;;;1.20;;
63312;SDS011;49442;45.640;13.812;2022-08-01T15:19:03;1.10;;;1.00;;
63312;SDS011;49442;45.640;13.812;2022-08-01T15:21:29;1.27;;;1.10;;
63312;SDS011;49442;45.640;13.812;2022-08-01T15:23:55;1.17;;;1.08;;
63312;SDS011;49442;45.640;13.812;2022-08-01T15:26:21;1.40;;;1.10;;
63312;SDS011;49442;45.640;13.812;2022-08-01T15:28:46;0.85;;;0.82;;
63312;SDS011;49442;45.640;13.812;2022-08-01T15:31:12;2.03;;;1.15;;
63312;SDS011;49442;45.640;13.812;2022-08-01T15:33:38;1.40;;;0.95;;